createdAt,value
2022-08-22T00:00:13.553Z,15.36
2022-08-22T00:02:45.270Z,20.78
2022-08-22T00:02:58.022Z,15.28
2022-08-22T00:03:03.566Z,22.35
2022-08-22T00:03:06.413Z,15.46
2022-08-22T00:03:10.287Z,15.96
2022-08-22T00:03:11.561Z,20.39
2022-08-22T00:03:17.551Z,15.29
2022-08-22T00:05:57.438Z,15.40
2022-08-22T00:08:32.701Z,15.15
2022-08-22T00:11:08.783Z,15.03
2022-08-22T00:13:46.184Z,15.26
2022-08-22T00:16:19.461Z,15.30
2022-08-22T00:18:52.700Z,15.35
2022-08-22T00:21:26.386Z,15.13
2022-08-22T00:24:07.168Z,15.28
2022-08-22T00:26:45.412Z,15.15
2022-08-22T00:29:16.652Z,14.97
2022-08-22T00:31:50.827Z,14.99
2022-08-22T00:34:30.973Z,15.07
2022-08-22T00:37:04.153Z,14.88
2022-08-22T00:39:37.418Z,14.74
2022-08-22T00:42:31.759Z,14.96
2022-08-22T00:45:34.525Z,14.95
2022-08-22T00:48:19.762Z,14.88
2022-08-22T00:51:11.097Z,14.69
2022-08-22T00:53:46.857Z,14.59
2022-08-22T00:56:45.998Z,14.61
2022-08-22T00:59:30.122Z,14.50
2022-08-22T01:02:11.108Z,14.77
2022-08-22T01:05:02.254Z,14.64
2022-08-22T01:07:45.126Z,14.66
2022-08-22T01:10:32.141Z,14.73
2022-08-22T01:13:16.090Z,14.65
2022-08-22T01:15:45.720Z,14.78
2022-08-22T01:18:33.964Z,14.65
2022-08-22T01:21:38.466Z,14.44
2022-08-22T01:25:04.749Z,14.25
2022-08-22T01:28:07.510Z,14.24
2022-08-22T01:30:52.357Z,14.18
2022-08-22T01:33:53.517Z,14.28
2022-08-22T01:36:43.954Z,14.35
2022-08-22T01:39:50.574Z,14.54
2022-08-22T01:42:38.283Z,14.29
2022-08-22T01:45:57.188Z,14.27
2022-08-22T01:48:32.665Z,14.19
2022-08-22T01:51:13.778Z,13.89
2022-08-22T01:53:51.646Z,14.19
2022-08-22T01:56:21.592Z,14.15
2022-08-22T01:58:58.697Z,13.98
2022-08-22T02:01:46.889Z,13.87
2022-08-22T02:04:20.942Z,14.01
2022-08-22T02:07:01.088Z,14.16
2022-08-22T02:09:41.765Z,13.96
2022-08-22T02:12:28.178Z,14.06
2022-08-22T02:15:06.906Z,14.26
2022-08-22T02:17:52.521Z,14.13
2022-08-22T02:20:26.068Z,14.04
2022-08-22T02:22:58.502Z,14.05
2022-08-22T02:25:33.442Z,13.89
2022-08-22T02:28:14.756Z,13.91
2022-08-22T02:30:48.954Z,14.12
2022-08-22T02:33:30.227Z,13.92
2022-08-22T02:36:04.266Z,14.17
2022-08-22T02:38:38.514Z,13.85
2022-08-22T02:41:14.472Z,13.70
2022-08-22T02:43:50.335Z,13.84
2022-08-22T02:46:26.384Z,13.94
2022-08-22T02:49:03.789Z,13.97
2022-08-22T02:51:40.185Z,13.99
2022-08-22T02:54:17.340Z,14.09
2022-08-22T02:56:53.462Z,13.82
2022-08-22T02:59:33.325Z,13.82
2022-08-22T03:02:29.926Z,13.81
2022-08-22T03:05:01.181Z,13.79
2022-08-22T03:07:40.443Z,13.66
2022-08-22T03:10:21.394Z,13.74
2022-08-22T03:13:00.519Z,13.55
2022-08-22T03:15:35.447Z,13.55
2022-08-22T03:18:15.902Z,13.40
2022-08-22T03:20:48.964Z,13.58
2022-08-22T03:23:28.400Z,13.60
2022-08-22T03:26:07.484Z,13.57
2022-08-22T03:28:52.621Z,13.43
2022-08-22T03:31:30.630Z,13.39
2022-08-22T03:34:17.623Z,13.48
2022-08-22T03:36:59.441Z,13.39
2022-08-22T03:39:46.447Z,13.47
2022-08-22T03:42:56.137Z,13.51
2022-08-22T03:46:04.408Z,13.37
2022-08-22T03:48:58.363Z,13.34
2022-08-22T03:51:59.836Z,13.19
2022-08-22T03:54:52.746Z,13.14
2022-08-22T03:57:49.523Z,13.00
2022-08-22T04:00:40.039Z,13.29
2022-08-22T04:03:41.580Z,13.25
2022-08-22T04:06:35.419Z,13.23
2022-08-22T04:09:29.211Z,12.93
2022-08-22T04:12:23.952Z,13.17
2022-08-22T04:15:32.255Z,13.29
2022-08-22T04:18:19.207Z,13.29
2022-08-22T04:21:24.392Z,13.16
2022-08-22T04:24:10.269Z,13.14
2022-08-22T04:26:43.903Z,13.14
2022-08-22T04:29:20.806Z,13.18
2022-08-22T04:31:54.802Z,12.97
2022-08-22T04:34:29.551Z,13.22
2022-08-22T04:37:06.699Z,13.06
2022-08-22T04:39:41.799Z,12.91
2022-08-22T04:42:32.393Z,12.89
2022-08-22T04:45:08.272Z,13.08
2022-08-22T04:47:41.123Z,12.94
2022-08-22T04:50:17.196Z,12.85
2022-08-22T04:53:03.286Z,12.87
2022-08-22T04:55:40.806Z,13.20
2022-08-22T04:58:23.309Z,13.10
2022-08-22T05:00:58.662Z,13.18
2022-08-22T05:03:30.039Z,13.35
2022-08-22T05:06:02.915Z,13.37
2022-08-22T05:08:36.913Z,13.29
2022-08-22T05:11:10.528Z,13.43
2022-08-22T05:13:46.740Z,13.50
2022-08-22T05:16:19.125Z,13.53
2022-08-22T05:18:50.590Z,13.62
2022-08-22T05:21:23.007Z,13.84
2022-08-22T05:23:59.790Z,13.90
2022-08-22T05:26:29.651Z,13.57
2022-08-22T05:29:02.423Z,13.85
2022-08-22T05:31:34.219Z,13.78
2022-08-22T05:34:05.986Z,13.72
2022-08-22T05:36:38.140Z,13.71
2022-08-22T05:39:13.208Z,13.92
2022-08-22T05:41:42.248Z,13.98
2022-08-22T05:44:19.877Z,14.09
2022-08-22T05:46:51.093Z,14.05
2022-08-22T05:49:22.610Z,14.14
2022-08-22T05:52:01.981Z,14.29
2022-08-22T05:54:34.972Z,14.42
2022-08-22T05:57:10.493Z,14.50
2022-08-22T05:59:42.744Z,14.57
2022-08-22T06:02:17.950Z,14.79
2022-08-22T06:04:51.900Z,14.76
2022-08-22T06:07:24.576Z,15.09
2022-08-22T06:10:08.454Z,15.31
2022-08-22T06:12:43.185Z,15.42
2022-08-22T06:15:20.964Z,15.57
2022-08-22T06:17:52.152Z,15.74
2022-08-22T06:20:23.973Z,15.86
2022-08-22T06:22:55.362Z,16.04
2022-08-22T06:25:29.313Z,16.15
2022-08-22T06:28:00.172Z,16.31
2022-08-22T06:30:30.149Z,16.49
2022-08-22T06:33:02.446Z,16.85
2022-08-22T06:35:54.706Z,17.03
2022-08-22T06:38:29.579Z,17.13
2022-08-22T06:41:02.032Z,17.49
2022-08-22T06:43:38.161Z,17.63
2022-08-22T06:46:07.443Z,17.79
2022-08-22T06:48:37.537Z,18.01
2022-08-22T06:51:08.716Z,18.30
2022-08-22T06:53:47.842Z,18.33
2022-08-22T06:56:23.268Z,18.60
2022-08-22T06:58:55.653Z,18.79
2022-08-22T07:01:27.545Z,18.99
2022-08-22T07:04:00.298Z,19.03
2022-08-22T07:06:31.944Z,19.29
2022-08-22T07:08:59.989Z,19.53
2022-08-22T07:11:39.387Z,19.83
2022-08-22T07:14:11.465Z,19.90
2022-08-22T07:16:44.933Z,20.37
2022-08-22T07:19:25.449Z,20.43
2022-08-22T07:21:53.674Z,20.91
2022-08-22T07:24:25.620Z,21.03
2022-08-22T07:27:08.874Z,21.47
2022-08-22T07:29:47.801Z,21.62
2022-08-22T07:32:20.793Z,21.85
2022-08-22T07:35:05.620Z,22.09
2022-08-22T07:37:47.461Z,22.09
2022-08-22T07:40:23.326Z,22.32
2022-08-22T07:42:58.901Z,22.74
2022-08-22T07:45:34.423Z,22.96
2022-08-22T07:48:25.767Z,23.07
2022-08-22T07:51:08.437Z,22.99
2022-08-22T07:53:42.906Z,23.40
2022-08-22T07:56:16.896Z,23.36
2022-08-22T07:58:48.903Z,23.50
2022-08-22T08:01:20.577Z,23.62
2022-08-22T08:03:54.509Z,23.97
2022-08-22T08:06:24.792Z,24.12
2022-08-22T08:08:53.995Z,24.50
2022-08-22T08:11:24.128Z,24.67
2022-08-22T08:13:58.896Z,25.18
2022-08-22T08:16:29.659Z,25.32
2022-08-22T08:19:01.072Z,25.41
2022-08-22T08:21:32.015Z,25.61
2022-08-22T08:24:02.428Z,25.85
2022-08-22T08:26:34.806Z,26.15
2022-08-22T08:29:04.511Z,26.18
2022-08-22T08:31:38.199Z,25.96
2022-08-22T08:34:18.415Z,26.19
2022-08-22T08:36:52.318Z,25.56
2022-08-22T08:39:25.452Z,25.81
2022-08-22T08:42:30.502Z,26.10
2022-08-22T08:45:18.098Z,26.47
2022-08-22T08:48:16.551Z,26.85
2022-08-22T08:51:02.032Z,26.60
2022-08-22T08:54:03.676Z,26.88
2022-08-22T08:56:39.488Z,26.68
2022-08-22T08:59:25.647Z,26.86
2022-08-22T09:02:13.709Z,27.38
2022-08-22T09:05:25.410Z,27.92
2022-08-22T09:08:19.849Z,26.94
2022-08-22T09:11:09.904Z,27.26
2022-08-22T09:13:53.146Z,27.82
2022-08-22T09:16:46.233Z,27.95
2022-08-22T09:19:55.430Z,28.02
2022-08-22T09:23:05.145Z,27.44
2022-08-22T09:25:43.756Z,27.14
2022-08-22T09:28:17.677Z,27.81
2022-08-22T09:31:16.779Z,28.02
2022-08-22T09:33:56.909Z,28.24
2022-08-22T09:36:33.522Z,28.26
2022-08-22T09:39:13.291Z,28.34
2022-08-22T09:41:53.320Z,28.41
2022-08-22T09:44:39.449Z,28.73
2022-08-22T09:47:24.756Z,28.96
2022-08-22T09:50:05.117Z,28.89
2022-08-22T09:52:50.833Z,28.49
2022-08-22T09:55:38.553Z,28.25
2022-08-22T09:58:17.201Z,28.83
2022-08-22T10:00:55.384Z,29.65
2022-08-22T10:03:34.118Z,30.03
2022-08-22T10:06:13.422Z,30.40
2022-08-22T10:08:48.425Z,30.68
2022-08-22T10:11:26.885Z,30.94
2022-08-22T10:14:02.611Z,31.22
2022-08-22T10:16:43.156Z,31.29
2022-08-22T10:19:18.633Z,30.19
2022-08-22T10:22:21.511Z,28.72
2022-08-22T10:24:59.603Z,30.87
2022-08-22T10:27:43.567Z,30.57
2022-08-22T10:30:17.659Z,30.16
2022-08-22T10:32:53.415Z,31.18
2022-08-22T10:35:27.633Z,30.37
2022-08-22T10:37:59.073Z,29.82
2022-08-22T10:40:31.573Z,30.32
2022-08-22T10:43:10.206Z,31.69
2022-08-22T10:45:45.168Z,31.51
2022-08-22T10:48:35.216Z,31.68
2022-08-22T10:51:19.100Z,30.56
2022-08-22T10:54:00.195Z,30.49
2022-08-22T10:56:35.554Z,29.89
2022-08-22T10:59:22.796Z,30.07
2022-08-22T11:02:02.375Z,30.97
2022-08-22T11:04:43.918Z,31.23
2022-08-22T11:07:33.932Z,30.66
2022-08-22T11:10:10.540Z,30.94
2022-08-22T11:12:59.636Z,30.80
2022-08-22T11:16:01.169Z,29.34
2022-08-22T11:19:02.092Z,29.28
2022-08-22T11:21:43.930Z,29.33
2022-08-22T11:24:34.653Z,29.72
2022-08-22T11:27:12.994Z,31.20
2022-08-22T11:29:48.929Z,29.83
2022-08-22T11:32:30.017Z,31.13
2022-08-22T11:35:04.441Z,31.11
2022-08-22T11:37:47.578Z,32.13
2022-08-22T11:40:31.304Z,31.97
2022-08-22T11:43:12.003Z,31.73
2022-08-22T11:45:48.987Z,33.31
2022-08-22T11:48:24.671Z,31.90
2022-08-22T11:51:00.325Z,31.10
2022-08-22T11:53:38.796Z,32.23
2022-08-22T11:56:20.295Z,32.26
2022-08-22T11:58:55.831Z,32.05
2022-08-22T12:01:34.632Z,31.15
2022-08-22T12:04:12.717Z,30.95
2022-08-22T12:06:58.391Z,31.39
2022-08-22T12:09:42.558Z,32.13
2022-08-22T12:12:24.759Z,32.39
2022-08-22T12:15:00.407Z,32.98
2022-08-22T12:18:21.335Z,32.22
2022-08-22T12:21:07.484Z,31.73
2022-08-22T12:23:56.299Z,31.53
2022-08-22T12:26:34.132Z,30.89
2022-08-22T12:29:19.231Z,31.15
2022-08-22T12:32:33.918Z,31.03
2022-08-22T12:35:17.973Z,30.82
2022-08-22T12:37:55.957Z,30.61
2022-08-22T12:40:34.712Z,30.82
2022-08-22T12:43:42.507Z,30.56
2022-08-22T12:46:18.450Z,30.49
2022-08-22T12:49:00.652Z,29.90
2022-08-22T12:51:44.340Z,30.07
2022-08-22T12:54:47.235Z,30.37
2022-08-22T12:57:26.803Z,29.78
2022-08-22T12:59:58.111Z,31.20
2022-08-22T13:02:30.552Z,30.48
2022-08-22T13:05:01.816Z,29.44
2022-08-22T13:07:31.843Z,30.70
2022-08-22T13:10:03.167Z,30.63
2022-08-22T13:12:39.945Z,32.17
2022-08-22T13:15:29.900Z,32.39
2022-08-22T13:18:18.807Z,32.71
2022-08-22T13:20:51.318Z,33.18
2022-08-22T13:23:29.005Z,33.02
2022-08-22T13:26:07.711Z,34.00
2022-08-22T13:28:45.197Z,33.56
2022-08-22T13:31:24.339Z,33.02
2022-08-22T13:33:54.801Z,32.88
2022-08-22T13:36:26.835Z,31.57
2022-08-22T13:39:02.558Z,31.05
2022-08-22T13:41:36.921Z,31.32
2022-08-22T13:44:20.553Z,30.52
2022-08-22T13:47:12.929Z,30.84
2022-08-22T13:49:44.158Z,30.69
2022-08-22T13:52:29.763Z,30.76
2022-08-22T13:55:03.625Z,30.56
2022-08-22T13:57:44.039Z,29.82
2022-08-22T14:00:57.748Z,30.16
2022-08-22T14:03:29.921Z,30.02
2022-08-22T14:06:32.543Z,30.64
2022-08-22T14:08:49.819Z,31.31
2022-08-22T14:11:29.468Z,30.49
2022-08-22T14:14:00.629Z,31.17
2022-08-22T14:16:35.534Z,31.44
2022-08-22T14:19:08.353Z,31.71
2022-08-22T14:21:42.770Z,31.99
2022-08-22T14:24:25.717Z,33.14
2022-08-22T14:26:59.251Z,32.59
2022-08-22T14:29:40.558Z,31.96
2022-08-22T14:32:35.391Z,31.18
2022-08-22T14:35:21.419Z,32.36
2022-08-22T14:37:54.412Z,33.26
2022-08-22T14:40:28.970Z,32.34
2022-08-22T14:43:03.925Z,32.20
2022-08-22T14:45:37.369Z,31.87
2022-08-22T14:48:30.850Z,31.04
2022-08-22T14:51:04.002Z,31.01
2022-08-22T14:53:34.766Z,31.04
2022-08-22T14:56:08.957Z,30.85
2022-08-22T14:58:48.795Z,30.70
2022-08-22T15:01:21.804Z,30.21
2022-08-22T15:03:55.411Z,30.65
2022-08-22T15:06:37.283Z,30.12
2022-08-22T15:09:08.443Z,29.31
2022-08-22T15:11:37.792Z,29.66
2022-08-22T15:14:16.165Z,29.04
2022-08-22T15:16:53.557Z,29.43
2022-08-22T15:19:35.481Z,28.65
2022-08-22T15:22:13.626Z,28.75
2022-08-22T15:24:44.423Z,29.17
2022-08-22T15:27:13.275Z,28.75
2022-08-22T15:29:55.609Z,29.17
2022-08-22T15:32:26.704Z,29.63
2022-08-22T15:35:05.424Z,30.28
2022-08-22T15:37:35.209Z,30.31
2022-08-22T15:40:11.890Z,30.20
2022-08-22T15:42:44.246Z,29.90
2022-08-22T15:45:34.029Z,29.43
2022-08-22T15:48:06.320Z,30.53
2022-08-22T15:50:41.954Z,30.83
2022-08-22T15:53:20.193Z,29.69
2022-08-22T15:56:22.398Z,30.49
2022-08-22T15:59:11.449Z,31.10
2022-08-22T16:01:44.339Z,30.74
2022-08-22T16:04:31.397Z,30.16
2022-08-22T16:07:02.565Z,29.28
2022-08-22T16:09:40.186Z,29.39
2022-08-22T16:12:26.107Z,29.45
2022-08-22T16:14:54.917Z,29.89
2022-08-22T16:17:46.582Z,30.38
2022-08-22T16:20:55.384Z,30.55
2022-08-22T16:23:24.956Z,30.76
2022-08-22T16:26:15.210Z,31.02
2022-08-22T16:28:58.901Z,30.80
2022-08-22T16:31:33.145Z,30.71
2022-08-22T16:34:23.294Z,30.48
2022-08-22T16:36:51.836Z,30.60
2022-08-22T16:39:38.546Z,30.35
2022-08-22T16:42:25.849Z,30.08
2022-08-22T16:44:59.267Z,30.38
2022-08-22T16:47:42.713Z,30.34
2022-08-22T16:50:29.244Z,30.17
2022-08-22T16:53:01.574Z,30.41
2022-08-22T16:56:10.093Z,30.39
2022-08-22T16:59:22.422Z,30.22
2022-08-22T17:02:00.916Z,30.29
2022-08-22T17:04:40.228Z,29.98
2022-08-22T17:07:22.138Z,29.68
2022-08-22T17:10:04.892Z,29.88
2022-08-22T17:12:52.625Z,29.71
2022-08-22T17:15:32.069Z,29.86
2022-08-22T17:18:12.251Z,29.94
2022-08-22T17:20:47.727Z,29.10
2022-08-22T17:23:29.359Z,29.16
2022-08-22T17:26:08.684Z,29.06
2022-08-22T17:28:42.790Z,29.15
2022-08-22T17:31:18.336Z,28.72
2022-08-22T17:34:10.993Z,27.71
2022-08-22T17:37:04.986Z,27.64
2022-08-22T17:39:55.577Z,27.18
2022-08-22T17:42:40.048Z,27.04
2022-08-22T17:45:19.422Z,26.84
2022-08-22T17:47:52.504Z,26.67
2022-08-22T17:50:26.678Z,26.54
2022-08-22T17:53:02.095Z,26.37
2022-08-22T17:55:33.634Z,26.34
2022-08-22T17:58:07.605Z,26.08
2022-08-22T18:00:40.914Z,26.23
2022-08-22T18:03:14.780Z,25.93
2022-08-22T18:05:51.540Z,26.27
2022-08-22T18:11:24.028Z,25.86
2022-08-22T18:13:58.394Z,25.84
2022-08-22T18:16:36.444Z,25.77
2022-08-22T18:19:12.896Z,25.65
2022-08-22T18:21:48.284Z,25.74
2022-08-22T18:24:23.353Z,25.39
2022-08-22T18:26:56.998Z,25.41
2022-08-22T18:29:29.558Z,25.41
2022-08-22T18:32:07.788Z,25.25
2022-08-22T18:34:43.906Z,24.64
2022-08-22T18:37:22.531Z,24.41
2022-08-22T18:39:56.543Z,23.97
2022-08-22T18:42:30.106Z,23.76
2022-08-22T18:44:58.179Z,23.73
2022-08-22T18:47:32.752Z,23.68
2022-08-22T18:50:03.590Z,23.45
2022-08-22T18:52:40.820Z,23.34
2022-08-22T18:55:37.642Z,23.51
2022-08-22T18:58:39.177Z,23.24
2022-08-22T19:01:42.344Z,23.00
2022-08-22T19:04:36.493Z,23.18
2022-08-22T19:07:25.579Z,22.83
2022-08-22T19:10:14.115Z,22.85
2022-08-22T19:13:13.089Z,22.83
2022-08-22T19:15:58.269Z,22.74
2022-08-22T19:18:44.338Z,22.49
2022-08-22T19:21:45.513Z,22.44
2022-08-22T19:24:37.746Z,22.23
2022-08-22T19:27:30.938Z,22.02
2022-08-22T19:30:02.337Z,22.02
2022-08-22T19:33:00.537Z,22.08
2022-08-22T19:35:37.924Z,21.83
2022-08-22T19:38:09.068Z,21.65
2022-08-22T19:40:55.898Z,21.45
2022-08-22T19:43:32.782Z,21.65
2022-08-22T19:46:03.764Z,21.47
2022-08-22T19:48:43.598Z,21.38
2022-08-22T19:51:15.805Z,21.55
2022-08-22T19:53:53.851Z,21.49
2022-08-22T19:56:34.309Z,21.35
2022-08-22T19:59:24.049Z,21.33
2022-08-22T20:01:58.945Z,21.26
2022-08-22T20:04:56.321Z,21.06
2022-08-22T20:07:34.174Z,21.32
2022-08-22T20:10:21.948Z,21.24
2022-08-22T20:13:04.226Z,21.16
2022-08-22T20:15:36.093Z,21.07
2022-08-22T20:18:47.370Z,20.87
2022-08-22T20:21:00.351Z,20.88
2022-08-22T20:23:32.294Z,20.72
2022-08-22T20:26:02.260Z,20.78
2022-08-22T20:28:40.254Z,20.71
2022-08-22T20:31:13.636Z,20.59
2022-08-22T20:33:46.049Z,20.75
2022-08-22T20:36:28.453Z,20.58
2022-08-22T20:39:01.303Z,20.81
2022-08-22T20:41:35.616Z,20.53
2022-08-22T20:44:13.493Z,20.61
2022-08-22T20:46:53.811Z,20.77
2022-08-22T20:49:26.039Z,20.47
2022-08-22T20:51:57.083Z,20.56
2022-08-22T20:54:27.227Z,20.55
2022-08-22T20:57:00.137Z,20.32
2022-08-22T20:59:37.133Z,20.31
2022-08-22T21:02:14.602Z,20.24
2022-08-22T21:04:49.011Z,20.11
2022-08-22T21:07:23.441Z,19.94
2022-08-22T21:10:15.221Z,19.92
2022-08-22T21:13:02.226Z,20.00
2022-08-22T21:15:36.633Z,19.90
2022-08-22T21:18:05.297Z,19.80
2022-08-22T21:20:36.744Z,19.92
2022-08-22T21:23:09.025Z,19.80
2022-08-22T21:25:51.665Z,19.78
2022-08-22T21:28:33.200Z,19.92
2022-08-22T21:31:08.476Z,20.03
2022-08-22T21:33:39.956Z,19.94
2022-08-22T21:36:11.574Z,19.78
2022-08-22T21:38:40.697Z,19.71
2022-08-22T21:41:08.797Z,19.95
2022-08-22T21:43:40.229Z,19.87
2022-08-22T21:46:25.731Z,19.68
2022-08-22T21:49:01.242Z,19.67
2022-08-22T21:51:42.070Z,19.71
2022-08-22T21:54:33.169Z,19.61
2022-08-22T21:57:16.234Z,19.59
2022-08-22T21:59:59.684Z,19.59
2022-08-22T22:02:31.347Z,19.46
2022-08-22T22:05:04.490Z,19.52
2022-08-22T22:07:37.655Z,19.62
2022-08-22T22:10:08.471Z,19.47
2022-08-22T22:12:36.372Z,19.58
2022-08-22T22:15:06.512Z,19.40
2022-08-22T22:17:34.554Z,19.46
2022-08-22T22:20:02.635Z,19.44
2022-08-22T22:22:30.425Z,19.46
2022-08-22T22:24:58.411Z,19.59
2022-08-22T22:27:26.256Z,19.49
2022-08-22T22:29:54.068Z,19.32
2022-08-22T22:32:23.240Z,19.02
2022-08-22T22:34:51.059Z,18.94
2022-08-22T22:37:19.497Z,18.70
2022-08-22T22:39:47.428Z,18.92
2022-08-22T22:42:15.705Z,18.90
2022-08-22T22:44:43.952Z,19.04
2022-08-22T22:47:15.402Z,18.81
2022-08-22T22:49:46.069Z,18.82
2022-08-22T22:52:13.879Z,18.95
2022-08-22T22:54:41.722Z,18.91
2022-08-22T22:57:12.851Z,19.00
2022-08-22T22:59:41.805Z,18.99
2022-08-22T23:02:12.837Z,18.85
2022-08-22T23:04:43.289Z,18.55
2022-08-22T23:07:13.664Z,18.75
2022-08-22T23:09:45.177Z,18.56
2022-08-22T23:12:14.186Z,18.41
2022-08-22T23:14:42.510Z,18.50
2022-08-22T23:17:10.548Z,18.27
2022-08-22T23:19:39.339Z,18.30
2022-08-22T23:22:08.972Z,18.33
2022-08-22T23:24:40.047Z,18.31
2022-08-22T23:27:09.553Z,18.33
2022-08-22T23:29:38.369Z,18.27
2022-08-22T23:32:06.564Z,18.25
2022-08-22T23:34:36.985Z,18.10
2022-08-22T23:37:06.610Z,18.17
2022-08-22T23:39:36.343Z,17.95
2022-08-22T23:42:07.688Z,17.75
2022-08-22T23:44:37.599Z,17.56
2022-08-22T23:47:06.821Z,17.45
2022-08-22T23:49:34.923Z,17.39
2022-08-22T23:52:03.280Z,17.31
2022-08-22T23:54:31.306Z,17.34
2022-08-22T23:57:01.547Z,17.14
2022-08-22T23:59:34.137Z,17.19
